Time;durP1;ratioP1;P1;durP2;ratioP2;P2;SDS_P1;SDS_P2;PMS_P1;PMS_P2;Temp;Humidity;BMP_temperature;BMP_pressure;BME280_temperature;BME280_humidity;BME280_pressure;Samples;Min_cycle;Max_cycle;Signal;HPM_P1;HPM_P2
2021/07/24 00:01:48;;;;;;;15.00;11.98;;;;;;;17.09;94.18;101130.69;5231396;28;20063;-67
2021/07/24 00:04:19;;;;;;;18.88;13.55;;;;;;;17.14;93.72;101125.72;5231490;28;20021;-67
2021/07/24 00:06:50;;;;;;;15.57;13.23;;;;;;;17.09;93.98;101129.88;5230594;28;20042;-67
2021/07/24 00:09:21;;;;;;;14.48;12.25;;;;;;;17.04;94.09;101132.97;5232669;28;20036;-67
2021/07/24 00:11:53;;;;;;;15.47;13.43;;;;;;;17.00;94.41;101132.47;5232454;28;20029;-67
2021/07/24 00:14:25;;;;;;;15.07;13.18;;;;;;;17.02;94.53;101132.34;5229005;28;20566;-67
2021/07/24 00:16:56;;;;;;;16.63;12.57;;;;;;;16.96;94.50;101143.56;5232013;28;20044;-67
2021/07/24 00:19:27;;;;;;;16.15;12.70;;;;;;;16.95;94.65;101129.50;5231785;28;20438;-67
2021/07/24 00:21:58;;;;;;;15.70;12.65;;;;;;;16.93;94.99;101131.50;5232313;28;20506;-67
2021/07/24 00:24:30;;;;;;;16.50;13.07;;;;;;;16.94;94.72;101132.34;5231148;28;20017;-67
2021/07/24 00:27:01;;;;;;;13.80;12.40;;;;;;;16.91;95.53;101127.38;5229863;28;20055;-67
2021/07/24 00:29:32;;;;;;;14.90;12.98;;;;;;;16.87;95.79;101121.56;5231556;28;20018;-67
2021/07/24 00:32:04;;;;;;;17.45;12.93;;;;;;;16.89;94.85;101119.56;5229987;28;20129;-67
2021/07/24 00:34:35;;;;;;;15.75;14.05;;;;;;;16.87;95.75;101126.03;5231297;28;20040;-67
2021/07/24 00:37:07;;;;;;;15.48;13.52;;;;;;;16.90;95.39;101121.25;5232505;28;20462;-67
2021/07/24 00:39:38;;;;;;;16.25;14.45;;;;;;;16.84;96.28;101126.38;5230796;28;20025;-67
2021/07/24 00:42:24;;;;;;;17.58;13.38;;;;;;;16.92;95.30;101113.97;5231402;28;20025;-67
2021/07/24 00:45:03;;;;;;;18.40;13.68;;;;;;;16.83;96.05;101117.59;5231585;28;20628;-67
2021/07/24 00:47:39;;;;;;;18.33;13.80;;;;;;;16.81;96.29;101098.41;5231016;28;20386;-67
2021/07/24 00:50:15;;;;;;;16.58;13.52;;;;;;;16.81;96.08;101094.94;5231647;28;20033;-67
2021/07/24 00:52:48;;;;;;;17.52;14.48;;;;;;;16.74;96.73;101087.69;5243330;28;20402;-67
2021/07/24 00:55:19;;;;;;;16.67;13.88;;;;;;;16.75;96.39;101091.97;5231228;28;20084;-67
2021/07/24 00:57:51;;;;;;;15.82;13.40;;;;;;;16.71;96.30;101089.78;5230836;28;20053;-67
2021/07/24 01:00:22;;;;;;;19.48;14.43;;;;;;;16.67;96.90;101072.59;5231103;28;20025;-67
2021/07/24 01:02:53;;;;;;;19.23;14.70;;;;;;;16.62;96.89;101067.78;5231804;28;20033;-67
2021/07/24 01:05:25;;;;;;;15.93;13.55;;;;;;;16.58;97.15;101058.50;5231906;28;20040;-67
2021/07/24 01:07:57;;;;;;;18.83;14.05;;;;;;;16.51;97.43;101049.56;5231610;28;20194;-67
2021/07/24 01:10:28;;;;;;;20.88;14.13;;;;;;;16.49;97.76;101048.94;5232691;28;20433;-67
2021/07/24 01:13:01;;;;;;;18.52;14.60;;;;;;;16.45;98.17;101043.13;5232243;28;20032;-67
2021/07/24 01:15:32;;;;;;;16.95;14.13;;;;;;;16.44;98.23;101053.84;5231109;28;20038;-67
2021/07/24 01:18:04;;;;;;;16.77;14.98;;;;;;;16.42;98.36;101045.28;5233330;28;20033;-67
2021/07/24 01:20:36;;;;;;;16.00;14.30;;;;;;;16.42;98.76;101037.34;5235134;28;20116;-67
2021/07/24 01:23:12;;;;;;;19.02;14.52;;;;;;;16.35;99.28;101037.16;5236904;28;20560;-67
2021/07/24 01:25:46;;;;;;;19.20;14.63;;;;;;;16.33;99.39;101044.44;5235224;28;20103;-67
2021/07/24 01:28:43;;;;;;;19.02;13.85;;;;;;;16.46;98.85;101046.59;5236217;28;20028;-67
2021/07/24 01:31:14;;;;;;;17.63;14.80;;;;;;;16.24;99.54;101040.13;5234134;28;20495;-67
2021/07/24 01:33:46;;;;;;;17.92;15.70;;;;;;;16.22;99.39;101045.56;5233834;28;20048;-67
2021/07/24 01:36:17;;;;;;;17.20;14.20;;;;;;;16.20;99.92;101055.47;5236109;28;20030;-67
2021/07/24 01:38:49;;;;;;;15.63;13.85;;;;;;;16.18;100.00;101048.72;5235409;28;20025;-67
2021/07/24 01:41:20;;;;;;;16.65;13.75;;;;;;;16.21;100.00;101057.16;5236037;28;20029;-67
2021/07/24 01:43:51;;;;;;;18.23;14.00;;;;;;;16.18;100.00;101052.19;5235672;28;20041;-67
2021/07/24 01:46:24;;;;;;;18.17;14.48;;;;;;;16.15;100.00;101052.50;5236071;28;20116;-67
2021/07/24 01:54:55;;;;;;;18.75;15.25;;;;;;;16.13;100.00;101041.25;5229554;28;20045;-67
2021/07/24 01:57:29;;;;;;;18.08;14.88;;;;;;;16.03;100.00;101043.22;5234391;28;20041;-67
2021/07/24 02:00:11;;;;;;;18.55;14.77;;;;;;;16.02;100.00;101039.75;5235932;28;20574;-67
2021/07/24 02:02:44;;;;;;;17.75;14.05;;;;;;;16.00;100.00;101039.06;5233882;28;20037;-67
2021/07/24 02:05:26;;;;;;;19.10;14.80;;;;;;;15.95;100.00;101033.44;5233593;28;20438;-67
2021/07/24 02:08:02;;;;;;;19.10;15.65;;;;;;;15.90;100.00;101029.63;5231885;28;20057;-67
2021/07/24 02:10:34;;;;;;;19.05;15.63;;;;;;;15.81;100.00;101026.94;5235414;28;20033;-67
2021/07/24 02:13:05;;;;;;;19.13;15.35;;;;;;;15.80;100.00;101027.94;5235224;28;20087;-67
2021/07/24 02:15:37;;;;;;;18.50;14.05;;;;;;;15.84;100.00;101019.72;5235059;28;20025;-67
2021/07/24 02:18:13;;;;;;;16.95;14.38;;;;;;;15.78;100.00;101019.34;5234913;28;20457;-68
2021/07/24 02:20:48;;;;;;;18.80;15.25;;;;;;;15.79;100.00;101005.13;5234852;28;20033;-67
2021/07/24 02:23:19;;;;;;;18.77;15.05;;;;;;;15.75;100.00;101003.81;5234774;28;20040;-67
2021/07/24 02:25:50;;;;;;;18.73;14.90;;;;;;;15.69;100.00;100998.34;5233496;28;20026;-67
2021/07/24 02:28:22;;;;;;;18.10;15.95;;;;;;;15.65;100.00;100978.50;5231308;28;20451;-68
2021/07/24 02:30:53;;;;;;;20.90;15.57;;;;;;;15.67;100.00;100977.38;5232789;28;20029;-68
2021/07/24 02:33:25;;;;;;;20.85;15.63;;;;;;;15.65;100.00;100968.78;5228134;28;20025;-67
2021/07/24 02:35:56;;;;;;;16.92;15.10;;;;;;;15.61;100.00;100974.50;5231479;28;20033;-67
2021/07/24 02:38:28;;;;;;;22.00;15.95;;;;;;;15.58;100.00;100963.28;5231098;28;20033;-67
2021/07/24 02:40:59;;;;;;;17.70;14.80;;;;;;;15.57;100.00;100950.25;5232745;28;20047;-68
2021/07/24 02:43:30;;;;;;;20.48;17.45;;;;;;;15.46;100.00;100930.25;5234543;28;20471;-67
2021/07/24 02:46:01;;;;;;;22.45;16.88;;;;;;;15.50;100.00;100931.56;5233619;28;20486;-67
2021/07/24 02:48:33;;;;;;;20.67;16.50;;;;;;;15.44;100.00;100926.91;5234094;28;20395;-67
2021/07/24 02:51:04;;;;;;;21.20;16.90;;;;;;;15.39;100.00;100916.03;5234020;28;20033;-68
2021/07/24 02:53:35;;;;;;;20.83;16.47;;;;;;;15.42;100.00;100907.78;5234092;28;20018;-67
2021/07/24 02:56:07;;;;;;;18.90;16.33;;;;;;;15.32;100.00;100892.06;5234550;28;20284;-66
2021/07/24 02:58:38;;;;;;;20.75;16.35;;;;;;;15.28;100.00;100879.34;5232228;28;20042;-66
2021/07/24 03:01:10;;;;;;;19.92;16.88;;;;;;;15.28;100.00;100885.47;5235216;28;20037;-66
2021/07/24 03:03:41;;;;;;;20.45;15.52;;;;;;;15.33;100.00;100891.06;5234363;28;20021;-66
2021/07/24 03:06:12;;;;;;;22.40;16.95;;;;;;;15.30;100.00;100887.94;5233901;28;20071;-66
2021/07/24 03:08:43;;;;;;;21.55;17.63;;;;;;;15.23;100.00;100885.13;5233357;28;20479;-66
2021/07/24 03:11:15;;;;;;;19.95;17.42;;;;;;;15.26;100.00;100879.50;5231904;28;20033;-66
2021/07/24 03:13:47;;;;;;;18.63;16.45;;;;;;;15.23;100.00;100884.31;5232544;28;20530;-66
2021/07/24 03:16:18;;;;;;;21.88;17.15;;;;;;;15.23;100.00;100894.84;5234225;28;20398;-66
2021/07/24 03:18:51;;;;;;;23.07;17.50;;;;;;;15.25;100.00;100895.50;5232563;28;20029;-66
2021/07/24 03:21:23;;;;;;;24.25;18.35;;;;;;;15.20;100.00;100895.16;5234328;28;20275;-66
2021/07/24 03:23:54;;;;;;;20.98;16.83;;;;;;;15.21;100.00;100894.19;5234002;28;20030;-66
2021/07/24 03:26:26;;;;;;;24.17;18.42;;;;;;;15.21;100.00;100902.91;5233216;28;20445;-66
2021/07/24 03:28:57;;;;;;;22.67;17.20;;;;;;;15.22;100.00;100917.75;5234295;28;20097;-68
2021/07/24 03:31:28;;;;;;;18.58;16.58;;;;;;;15.19;100.00;100912.81;5234122;28;20096;-66
2021/07/24 03:33:59;;;;;;;19.20;16.55;;;;;;;15.16;100.00;100904.38;5232868;28;20115;-66
2021/07/24 03:36:31;;;;;;;19.13;16.48;;;;;;;15.18;100.00;100895.31;5233657;28;20429;-66
2021/07/24 03:39:02;;;;;;;26.00;17.83;;;;;;;15.14;100.00;100903.72;5232722;28;20509;-66
2021/07/24 03:41:35;;;;;;;20.80;17.85;;;;;;;15.11;100.00;100906.66;5231301;28;20041;-67
2021/07/24 03:44:07;;;;;;;24.55;17.95;;;;;;;15.11;100.00;100933.88;5230842;28;20029;-67
2021/07/24 03:46:40;;;;;;;23.77;17.50;;;;;;;15.11;100.00;100933.88;5233613;28;20588;-66
2021/07/24 03:49:11;;;;;;;22.98;18.52;;;;;;;15.09;100.00;100928.75;5233563;28;20033;-66
2021/07/24 03:51:42;;;;;;;23.08;17.90;;;;;;;15.09;100.00;100912.09;5232398;28;20025;-66
2021/07/24 03:54:13;;;;;;;22.73;17.23;;;;;;;15.09;100.00;100917.38;5233307;28;20031;-66
2021/07/24 03:56:45;;;;;;;21.33;17.50;;;;;;;15.09;100.00;100920.03;5232545;28;20045;-66
2021/07/24 03:59:16;;;;;;;22.10;17.00;;;;;;;15.06;100.00;100928.25;5234061;28;20566;-66
2021/07/24 04:01:49;;;;;;;18.90;16.65;;;;;;;15.12;100.00;100937.34;5227444;28;20598;-67
2021/07/24 04:04:20;;;;;;;20.73;17.10;;;;;;;15.05;100.00;100953.00;5230581;28;20025;-67
2021/07/24 04:06:53;;;;;;;21.50;16.60;;;;;;;15.07;100.00;100953.63;5231776;28;20029;-67
2021/07/24 04:09:26;;;;;;;22.88;17.58;;;;;;;15.08;100.00;100964.06;5231405;28;20040;-67
2021/07/24 04:11:57;;;;;;;19.80;17.30;;;;;;;15.12;100.00;100980.41;5232669;28;20033;-67
2021/07/24 04:14:28;;;;;;;21.05;17.35;;;;;;;15.11;100.00;100976.09;5232207;28;20514;-67
2021/07/24 04:16:59;;;;;;;19.85;17.35;;;;;;;15.09;100.00;100975.44;5229930;28;20053;-67
2021/07/24 04:19:31;;;;;;;20.05;17.08;;;;;;;15.03;100.00;100960.22;5232736;28;20071;-67
2021/07/24 04:22:02;;;;;;;20.90;17.23;;;;;;;15.15;100.00;100961.59;5233192;28;20472;-68
2021/07/24 04:24:34;;;;;;;20.83;16.85;;;;;;;15.18;100.00;100947.25;5232039;28;20128;-67
2021/07/24 04:27:07;;;;;;;22.40;17.80;;;;;;;15.21;100.00;100931.94;5232922;28;20029;-67
2021/07/24 04:29:38;;;;;;;23.13;17.45;;;;;;;15.25;100.00;100911.34;5232752;28;20478;-67
2021/07/24 04:32:09;;;;;;;22.13;17.88;;;;;;;15.28;100.00;100900.47;5232883;28;20031;-67
2021/07/24 04:34:41;;;;;;;21.45;17.17;;;;;;;15.33;100.00;100896.34;5231720;28;20331;-68
2021/07/24 04:37:12;;;;;;;21.63;17.20;;;;;;;15.35;100.00;100906.78;5233163;28;20029;-67
2021/07/24 04:39:44;;;;;;;21.40;17.42;;;;;;;15.35;100.00;100906.78;5232380;28;20022;-67
2021/07/24 04:42:15;;;;;;;22.25;17.85;;;;;;;15.37;100.00;100925.09;5232792;28;20083;-67
2021/07/24 04:44:46;;;;;;;23.13;18.08;;;;;;;15.36;100.00;100929.53;5230765;28;20493;-67
2021/07/24 04:47:17;;;;;;;18.80;16.58;;;;;;;15.37;100.00;100931.19;5230838;28;20026;-67
2021/07/24 04:49:51;;;;;;;20.17;16.73;;;;;;;15.40;100.00;100927.41;5232223;28;20025;-67
2021/07/24 04:52:23;;;;;;;24.42;18.15;;;;;;;15.40;100.00;100930.03;5232093;28;20033;-67
2021/07/24 04:54:55;;;;;;;20.35;16.67;;;;;;;15.42;100.00;100934.19;5236230;28;20037;-67
2021/07/24 04:57:30;;;;;;;23.67;17.15;;;;;;;15.42;100.00;100930.69;5237302;28;20129;-68
2021/07/24 05:00:01;;;;;;;20.38;17.52;;;;;;;15.40;100.00;100930.88;5236292;28;20037;-67
2021/07/24 05:02:32;;;;;;;20.20;17.52;;;;;;;15.41;100.00;100934.34;5235216;28;20037;-67
2021/07/24 05:05:04;;;;;;;24.50;18.13;;;;;;;15.44;100.00;100934.03;5236598;28;20041;-67
2021/07/24 05:07:36;;;;;;;20.73;17.98;;;;;;;15.45;100.00;100931.22;5236568;28;20028;-67
2021/07/24 05:10:09;;;;;;;23.15;17.67;;;;;;;15.51;100.00;100937.69;5236061;28;20037;-68
2021/07/24 05:12:40;;;;;;;22.85;17.52;;;;;;;15.53;100.00;100935.69;5235555;28;20021;-67
2021/07/24 05:15:11;;;;;;;21.23;16.75;;;;;;;15.54;100.00;100938.19;5235820;28;20037;-67
2021/07/24 05:17:43;;;;;;;24.02;17.55;;;;;;;15.58;100.00;100936.06;5236453;28;20044;-67
2021/07/24 05:20:14;;;;;;;23.08;18.30;;;;;;;15.57;100.00;100931.78;5233941;28;20018;-67
2021/07/24 05:22:45;;;;;;;22.23;16.45;;;;;;;15.64;100.00;100937.22;5235214;28;20029;-67
2021/07/24 05:25:17;;;;;;;21.90;18.15;;;;;;;15.61;100.00;100930.47;5235803;28;20218;-67
2021/07/24 05:27:49;;;;;;;19.08;15.82;;;;;;;15.70;100.00;100924.22;5235038;28;20032;-68
2021/07/24 05:30:20;;;;;;;21.30;16.30;;;;;;;15.72;100.00;100914.34;5234884;28;20037;-67
2021/07/24 05:32:51;;;;;;;21.08;16.70;;;;;;;15.80;100.00;100910.88;5235301;28;20112;-67
2021/07/24 05:35:22;;;;;;;21.60;17.02;;;;;;;15.80;100.00;100919.63;5236546;28;20037;-67
2021/07/24 05:37:54;;;;;;;20.55;16.52;;;;;;;15.85;100.00;100903.28;5234835;28;20030;-67
2021/07/24 05:40:25;;;;;;;20.58;17.15;;;;;;;15.91;100.00;100893.88;5232264;28;20037;-67
2021/07/24 05:42:59;;;;;;;20.35;17.25;;;;;;;15.97;100.00;100895.88;5236409;28;20072;-67
2021/07/24 05:45:31;;;;;;;21.63;17.13;;;;;;;16.03;100.00;100890.75;5232527;28;20022;-67
2021/07/24 05:48:02;;;;;;;22.43;18.13;;;;;;;16.02;100.00;100888.25;5235373;28;20025;-68
2021/07/24 05:50:33;;;;;;;19.00;16.33;;;;;;;16.14;100.00;100886.97;5233056;28;20885;-67
2021/07/24 05:53:05;;;;;;;22.52;17.85;;;;;;;16.11;100.00;100873.25;5235387;28;20118;-67
2021/07/24 05:55:37;;;;;;;21.98;17.13;;;;;;;16.21;100.00;100871.25;5233064;28;20025;-67
2021/07/24 05:58:09;;;;;;;22.05;17.35;;;;;;;16.27;100.00;100868.78;5234534;28;20536;-68
2021/07/24 06:00:40;;;;;;;20.98;17.42;;;;;;;16.30;100.00;100873.75;5235464;28;20041;-67
2021/07/24 06:03:11;;;;;;;21.17;18.00;;;;;;;16.31;100.00;100863.97;5228484;28;20033;-67
2021/07/24 06:05:43;;;;;;;20.10;16.88;;;;;;;16.41;100.00;100858.53;5232901;28;20025;-67
2021/07/24 06:08:14;;;;;;;19.95;17.23;;;;;;;16.46;100.00;100853.56;5235410;28;20060;-67
2021/07/24 06:10:45;;;;;;;25.55;17.92;;;;;;;16.56;100.00;100853.38;5234824;28;20017;-67
2021/07/24 06:13:17;;;;;;;21.77;17.15;;;;;;;16.55;100.00;100849.88;5234393;28;20055;-68
2021/07/24 06:15:48;;;;;;;23.08;17.85;;;;;;;16.58;100.00;100851.38;5232723;28;20032;-68
2021/07/24 06:18:20;;;;;;;23.48;17.75;;;;;;;16.60;100.00;100844.94;5235133;28;20032;-67
2021/07/24 06:20:52;;;;;;;25.10;17.25;;;;;;;16.69;100.00;100827.22;5233636;28;20048;-68
2021/07/24 06:23:23;;;;;;;20.65;16.80;;;;;;;16.78;100.00;100826.19;5233565;28;20030;-67
2021/07/24 06:25:55;;;;;;;20.02;16.95;;;;;;;16.80;100.00;100818.13;5231564;28;20052;-67
2021/07/24 06:28:26;;;;;;;23.13;17.87;;;;;;;16.81;100.00;100819.75;5234076;28;20494;-67
2021/07/24 06:31:02;;;;;;;21.25;17.58;;;;;;;16.84;100.00;100814.13;5233130;28;20027;-68
2021/07/24 06:33:33;;;;;;;21.10;17.08;;;;;;;16.92;100.00;100806.97;5235428;28;20036;-67
2021/07/24 06:36:05;;;;;;;22.15;17.67;;;;;;;16.95;100.00;100814.56;5234115;28;20017;-67
2021/07/24 06:38:36;;;;;;;19.48;16.95;;;;;;;16.99;100.00;100810.59;5234257;28;20052;-67
2021/07/24 06:41:07;;;;;;;18.48;16.50;;;;;;;17.09;100.00;100802.44;5234887;28;20119;-66
2021/07/24 06:43:39;;;;;;;21.98;17.70;;;;;;;17.05;100.00;100808.22;5234215;28;20049;-66
2021/07/24 06:46:12;;;;;;;20.98;17.02;;;;;;;17.13;100.00;100803.75;5234283;28;20040;-66
2021/07/24 06:48:43;;;;;;;25.48;16.95;;;;;;;17.11;100.00;100800.44;5234540;28;20025;-67
2021/07/24 06:51:14;;;;;;;21.15;18.02;;;;;;;17.09;100.00;100783.91;5232751;28;20651;-67
2021/07/24 06:53:46;;;;;;;21.48;17.38;;;;;;;17.20;100.00;100788.81;5232220;28;20033;-67
2021/07/24 06:56:17;;;;;;;22.70;18.43;;;;;;;17.23;100.00;100798.19;5232758;28;20504;-67
2021/07/24 06:58:48;;;;;;;22.00;17.98;;;;;;;17.30;100.00;100793.03;5233286;28;20041;-67
2021/07/24 07:01:20;;;;;;;20.30;16.75;;;;;;;17.32;100.00;100791.88;5232397;28;20483;-68
2021/07/24 07:03:51;;;;;;;21.23;17.52;;;;;;;17.35;100.00;100790.69;5234398;28;20072;-67
2021/07/24 07:06:22;;;;;;;23.52;17.73;;;;;;;17.57;100.00;100778.44;5230983;28;20061;-67
2021/07/24 07:08:53;;;;;;;19.98;17.08;;;;;;;17.66;100.00;100783.53;5233397;28;20030;-67
2021/07/24 07:11:25;;;;;;;22.60;17.90;;;;;;;17.70;100.00;100776.84;5231349;28;20124;-67
2021/07/24 07:13:57;;;;;;;22.00;19.58;;;;;;;17.79;100.00;100767.03;5233635;28;20033;-67
2021/07/24 07:16:28;;;;;;;24.42;19.45;;;;;;;17.89;100.00;100764.16;5233668;28;20025;-67
2021/07/24 07:18:59;;;;;;;24.83;18.95;;;;;;;18.05;100.00;100766.63;5233313;28;20132;-67
2021/07/24 07:21:31;;;;;;;21.83;18.38;;;;;;;18.16;100.00;100768.84;5233601;28;20029;-67
2021/07/24 07:24:02;;;;;;;23.17;17.30;;;;;;;18.35;100.00;100756.88;5234196;28;20029;-67
2021/07/24 07:26:33;;;;;;;20.85;17.67;;;;;;;18.50;100.00;100761.34;5233568;28;20510;-67
2021/07/24 07:29:05;;;;;;;20.63;17.48;;;;;;;18.69;99.84;100774.06;5233472;28;20047;-67
2021/07/24 07:31:36;;;;;;;21.40;18.20;;;;;;;18.79;99.57;100764.00;5233473;28;20569;-67
2021/07/24 07:34:07;;;;;;;19.63;16.87;;;;;;;18.90;98.26;100757.38;5232397;28;20084;-67
2021/07/24 07:36:39;;;;;;;23.07;18.00;;;;;;;18.94;97.85;100756.00;5231998;28;20501;-67
2021/07/24 07:39:10;;;;;;;21.35;18.60;;;;;;;19.08;97.39;100757.78;5232907;28;20034;-67
2021/07/24 07:41:41;;;;;;;21.50;18.48;;;;;;;19.09;96.58;100756.81;5230893;28;20060;-67
2021/07/24 07:44:12;;;;;;;27.02;19.92;;;;;;;19.16;97.22;100746.22;5231724;28;20224;-67
2021/07/24 07:46:44;;;;;;;22.53;18.83;;;;;;;19.15;96.22;100728.66;5230910;28;21174;-67
2021/07/24 07:49:15;;;;;;;26.50;19.10;;;;;;;19.18;96.08;100725.63;5231652;28;20447;-67
2021/07/24 07:51:46;;;;;;;21.37;18.57;;;;;;;19.13;96.45;100723.53;5231077;28;20033;-67
2021/07/24 07:54:17;;;;;;;22.30;18.30;;;;;;;19.31;96.38;100731.06;5230767;28;20434;-67
2021/07/24 07:56:49;;;;;;;24.00;19.90;;;;;;;19.27;96.47;100728.97;5232916;28;20069;-67
2021/07/24 07:59:20;;;;;;;22.83;18.97;;;;;;;19.35;96.50;100720.88;5232803;28;20108;-67
2021/07/24 08:01:51;;;;;;;21.03;18.70;;;;;;;19.48;96.72;100734.28;5231725;28;20398;-67
2021/07/24 08:04:23;;;;;;;23.93;20.63;;;;;;;19.43;95.47;100736.69;5232339;28;20478;-67
2021/07/24 08:06:54;;;;;;;24.40;20.17;;;;;;;19.55;96.39;100737.00;5228996;28;20573;-67
2021/07/24 08:09:25;;;;;;;22.57;19.23;;;;;;;19.62;95.69;100735.22;5230760;28;20029;-68
2021/07/24 08:11:56;;;;;;;23.53;19.13;;;;;;;19.63;95.82;100729.75;5232676;28;20029;-67
2021/07/24 08:14:28;;;;;;;22.43;19.27;;;;;;;19.70;94.65;100732.47;5232370;28;20370;-68
2021/07/24 08:16:59;;;;;;;22.53;17.67;;;;;;;19.64;95.14;100736.69;5232434;28;20033;-68
2021/07/24 08:19:31;;;;;;;21.47;17.87;;;;;;;19.73;94.90;100733.91;5230655;28;20041;-67
2021/07/24 08:22:05;;;;;;;21.83;19.63;;;;;;;19.83;94.82;100735.22;5230855;28;20029;-67
2021/07/24 08:24:36;;;;;;;21.25;17.90;;;;;;;19.80;94.34;100732.09;5230179;28;20033;-67
2021/07/24 08:27:08;;;;;;;23.03;19.47;;;;;;;19.81;93.87;100736.41;5231632;28;20033;-67
2021/07/24 08:29:39;;;;;;;21.27;18.63;;;;;;;19.80;94.72;100740.09;5231315;28;20041;-68
2021/07/24 08:32:10;;;;;;;23.37;18.10;;;;;;;19.95;93.26;100738.16;5231415;28;20509;-67
2021/07/24 08:34:41;;;;;;;20.33;18.23;;;;;;;19.94;94.57;100747.16;5231161;28;20033;-68
2021/07/24 08:37:13;;;;;;;22.10;18.43;;;;;;;19.90;93.03;100737.91;5229100;28;20204;-67
2021/07/24 08:39:44;;;;;;;22.63;17.37;;;;;;;20.06;95.01;100750.09;5228957;28;20116;-67
2021/07/24 08:42:30;;;;;;;22.90;18.63;;;;;;;20.16;94.47;100750.56;5231582;28;20080;-67
2021/07/24 08:45:02;;;;;;;21.02;18.05;;;;;;;20.17;94.18;100753.03;5229330;28;20067;-67
2021/07/24 08:47:34;;;;;;;21.13;17.80;;;;;;;20.29;93.58;100769.25;5230022;28;20049;-68
2021/07/24 08:50:08;;;;;;;21.00;18.35;;;;;;;20.37;92.21;100768.28;5230945;28;20478;-68
2021/07/24 08:52:41;;;;;;;23.27;18.50;;;;;;;20.43;93.99;100780.81;5230907;28;20115;-68
2021/07/24 08:55:12;;;;;;;23.73;17.98;;;;;;;20.59;92.78;100783.19;5228188;28;20026;-68
2021/07/24 08:57:44;;;;;;;23.40;18.10;;;;;;;20.63;91.93;100797.72;5231371;28;20560;-68
2021/07/24 09:00:15;;;;;;;20.90;18.67;;;;;;;20.64;91.34;100799.38;5228420;28;20021;-68
2021/07/24 09:02:47;;;;;;;23.77;19.07;;;;;;;20.63;91.48;100811.03;5229728;28;20044;-67
2021/07/24 09:05:19;;;;;;;20.50;17.97;;;;;;;20.63;91.04;100805.72;5230315;28;20525;-67
2021/07/24 09:07:51;;;;;;;20.35;18.23;;;;;;;20.73;90.94;100812.53;5230859;28;20030;-68
2021/07/24 09:10:22;;;;;;;19.80;17.50;;;;;;;20.84;90.89;100811.97;5231182;28;20067;-68
2021/07/24 09:12:58;;;;;;;22.37;18.93;;;;;;;20.93;91.08;100816.09;5229587;28;20087;-68
2021/07/24 09:15:29;;;;;;;23.58;17.50;;;;;;;21.04;90.10;100804.06;5230587;28;20029;-68
2021/07/24 09:18:01;;;;;;;20.37;18.27;;;;;;;21.14;90.96;100807.19;5231514;28;20017;-68
2021/07/24 09:20:34;;;;;;;21.67;17.10;;;;;;;21.33;90.46;100800.28;5227058;28;20036;-68
2021/07/24 09:23:29;;;;;;;21.90;17.48;;;;;;;21.43;90.12;100800.69;5229427;28;20026;-68
2021/07/24 09:26:00;;;;;;;20.10;16.77;;;;;;;21.33;88.40;100797.63;5227770;28;20083;-68
2021/07/24 09:28:33;;;;;;;23.17;16.57;;;;;;;21.36;87.60;100798.00;5230993;28;20025;-68
2021/07/24 09:31:22;;;;;;;21.52;17.25;;;;;;;21.37;88.58;100801.53;5222570;28;20049;-68
2021/07/24 09:33:54;;;;;;;24.05;18.05;;;;;;;21.32;88.41;100799.41;5229397;28;20115;-68
2021/07/24 09:36:36;;;;;;;20.63;17.30;;;;;;;21.58;89.56;100800.50;5230527;28;20033;-68
2021/07/24 09:39:18;;;;;;;21.97;17.00;;;;;;;21.70;89.54;100798.06;5230118;28;20061;-68
2021/07/24 09:41:49;;;;;;;19.02;16.70;;;;;;;21.56;89.01;100790.06;5233865;28;20036;-68
2021/07/24 09:44:31;;;;;;;21.10;15.90;;;;;;;21.73;87.25;100781.66;5235315;28;20482;-68
2021/07/24 09:47:02;;;;;;;20.80;16.88;;;;;;;21.59;86.29;100786.16;5233034;28;20025;-68
2021/07/24 09:49:37;;;;;;;20.17;15.50;;;;;;;21.66;87.95;100775.50;5233990;28;20099;-68
2021/07/24 09:52:14;;;;;;;19.52;15.85;;;;;;;21.66;87.77;100778.97;5234377;28;20021;-68
2021/07/24 09:54:46;;;;;;;17.45;15.43;;;;;;;21.67;87.19;100772.66;5234254;28;20120;-68
2021/07/24 09:57:35;;;;;;;19.50;17.40;;;;;;;21.91;86.92;100765.03;5233000;28;20095;-68
2021/07/24 10:00:39;;;;;;;21.40;16.88;;;;;;;21.93;86.66;100761.13;5233464;28;20489;-68
2021/07/24 10:03:11;;;;;;;22.98;16.00;;;;;;;21.88;86.63;100766.25;5221976;28;20053;-68
2021/07/24 10:05:42;;;;;;;20.63;16.50;;;;;;;21.85;86.77;100780.81;5233152;28;20025;-68
2021/07/24 10:08:15;;;;;;;22.90;17.53;;;;;;;21.87;88.11;100788.63;5234779;28;20430;-68
2021/07/24 10:10:48;;;;;;;22.65;17.85;;;;;;;21.84;87.49;100784.53;5234548;28;20026;-68
2021/07/24 10:13:21;;;;;;;21.42;17.33;;;;;;;21.78;88.21;100781.84;5233481;28;20392;-68
2021/07/24 10:15:53;;;;;;;19.15;15.93;;;;;;;21.81;89.13;100776.94;5233275;28;20116;-67
2021/07/24 10:18:26;;;;;;;22.92;17.63;;;;;;;21.80;89.43;100779.81;5233218;28;20314;-68
2021/07/24 10:20:58;;;;;;;23.02;17.30;;;;;;;21.79;88.93;100764.84;5232143;28;20036;-67
2021/07/24 10:23:29;;;;;;;19.53;17.00;;;;;;;21.77;89.25;100754.38;5231587;28;20438;-68
2021/07/24 10:26:20;;;;;;;19.40;16.77;;;;;;;21.83;88.82;100752.75;5231321;28;20060;-68
2021/07/24 10:29:06;;;;;;;19.38;16.33;;;;;;;21.83;87.90;100755.41;5229094;28;20475;-68
2021/07/24 10:31:58;;;;;;;22.35;17.65;;;;;;;21.79;88.52;100762.19;5232490;28;20498;-68
2021/07/24 10:34:32;;;;;;;18.98;16.98;;;;;;;21.74;90.49;100783.28;5232622;28;20390;-68
2021/07/24 10:37:33;;;;;;;21.65;18.52;;;;;;;21.85;89.14;100788.00;5231673;28;20029;-68
2021/07/24 10:40:17;;;;;;;20.67;17.45;;;;;;;21.79;89.63;100778.19;5233717;28;20048;-68
2021/07/24 10:42:50;;;;;;;20.52;18.33;;;;;;;21.77;89.09;100799.69;5233830;28;20025;-68
2021/07/24 10:45:31;;;;;;;20.75;17.88;;;;;;;21.79;89.08;100800.34;5233719;28;20100;-68
2021/07/24 10:48:14;;;;;;;20.30;17.02;;;;;;;21.84;89.42;100803.19;5234056;28;20917;-70
2021/07/24 10:51:08;;;;;;;20.77;17.45;;;;;;;21.96;89.08;100795.38;5231398;28;20392;-68
2021/07/24 10:54:01;;;;;;;20.85;16.92;;;;;;;22.01;89.33;100787.59;5230571;28;20047;-68
2021/07/24 10:56:37;;;;;;;;;;;;;;;22.22;88.69;100789.25;5231993;28;20036;-68
2021/07/24 10:59:18;;;;;;;19.23;16.85;;;;;;;22.00;89.46;100780.59;5233581;28;19924;-68
2021/07/24 11:01:49;;;;;;;23.40;16.83;;;;;;;21.89;88.15;100781.22;5230103;28;20040;-68
2021/07/24 11:04:36;;;;;;;18.90;16.83;;;;;;;22.09;88.31;100783.91;5233520;28;20025;-68
2021/07/24 11:07:13;;;;;;;20.15;17.38;;;;;;;21.95;89.82;100783.09;5233362;28;20029;-68
2021/07/24 11:09:46;;;;;;;23.13;17.13;;;;;;;22.08;87.67;100782.25;5227584;28;20067;-68
2021/07/24 11:12:17;;;;;;;24.45;17.23;;;;;;;22.06;88.40;100777.13;5233576;28;20778;-68
2021/07/24 11:14:49;;;;;;;19.90;17.50;;;;;;;22.02;89.31;100780.41;5233372;28;20536;-68
2021/07/24 11:17:21;;;;;;;20.00;16.53;;;;;;;22.08;88.59;100780.41;5232283;28;20029;-68
2021/07/24 11:19:53;;;;;;;19.17;16.80;;;;;;;22.09;88.52;100789.25;5232866;28;20279;-68
2021/07/24 11:22:27;;;;;;;20.27;16.58;;;;;;;22.10;86.58;100785.53;5233999;28;20028;-68
2021/07/24 11:24:58;;;;;;;21.63;16.48;;;;;;;22.07;87.13;100791.28;5228500;28;20025;-68
2021/07/24 11:27:32;;;;;;;23.67;17.40;;;;;;;21.99;88.28;100786.16;5231454;28;20033;-68
2021/07/24 11:30:04;;;;;;;21.20;16.70;;;;;;;21.98;88.94;100790.69;5232603;28;20029;-68
2021/07/24 11:32:40;;;;;;;21.23;15.97;;;;;;;21.99;87.41;100803.00;5233083;28;20037;-68
2021/07/24 11:35:13;;;;;;;20.20;16.65;;;;;;;21.98;87.64;100801.34;5232513;28;20036;-68
2021/07/24 11:37:48;;;;;;;18.65;15.45;;;;;;;22.02;89.30;100810.59;5231802;28;20026;-68
2021/07/24 11:40:27;;;;;;;20.30;16.92;;;;;;;22.04;86.90;100813.84;5229137;28;20099;-68